Impacts METAR Board INFO
IDs:

KMIA - Miami Intl, FL, US

Updated at: 0533 UTC 18 Jan 2018
Potential Impact None Slight Moderate High
Time17/17Z 17/18Z 17/19Z 17/20Z 17/21Z 17/22Z 17/23Z 18/00Z 18/01Z 18/02Z 18/03Z 18/04Z 18/05Z
VIS10 10 10 10 10 10 10 10 10 10 10 10 10
CIG250 250 250 250 250 250 250 250 250 250 250 250 250
CoverOVCOVCOVCOVCBKNOVCBKNOVCOVCBKNOVCBKNOVC
FltCatVFRVFRVFRVFRVFRVFRVFRVFRVFRVFRVFRVFRVFR
WX--------------------------
WDir320002903203103400320290310340320
WSpd7 6 5 9 7 6 6 3 4 6 11 10 8
WGst-- -- -- -- -- -- -- -- -- -- 18 20 --
Raw hourly METARs
KMIA 171653Z 32007KT 10SM FEW030 FEW100 OVC250 23/13 A3022 RMK AO2 SLP234 T02280128
KMIA 171753Z VRB06KT 10SM FEW100 OVC250 23/13 A3019 RMK AO2 SLP222 T02280128 10233 20167 58021
KMIA 171853Z VRB05KT 10SM FEW100 OVC250 23/12 A3016 RMK AO2 SLP212 T02280122
KMIA 171953Z 29009KT 10SM FEW100 OVC250 22/12 A3015 RMK AO2 SLP209 T02220117
KMIA 172053Z 32007KT 10SM FEW100 BKN250 22/09 A3015 RMK AO2 SLP211 T02170094 55011
KMIA 172153Z 31006KT 10SM FEW100 OVC250 21/11 A3017 RMK AO2 SLP215 T02110111
KMIA 172253Z COR 34006KT 10SM FEW100 BKN250 21/10 A3017 RMK AO2 SLP217 T02060100
KMIA 172353Z VRB03KT 10SM OVC250 21/10 A3018 RMK AO2 SLP221 T02060100 10233 20206 51010
KMIA 180053Z 32004KT 10SM OVC250 20/11 A3020 RMK AO2 SLP226 T02000106
KMIA 180153Z 29006KT 10SM BKN250 19/10 A3021 RMK AO2 SLP229 T01890100
KMIA 180253Z 31011G18KT 10SM OVC250 18/11 A3023 RMK AO2 SLP235 T01780111 53015
KMIA 180353Z 34010G20KT 10SM BKN250 15/10 A3024 RMK AO2 SLP241 T01500100
KMIA 180453Z 32008KT 10SM OVC250 14/09 A3024 RMK AO2 SLP240 T01390089 402330139